sensor_id;sensor_type;location;lat;lon;timestamp;P1;durP1;ratioP1;P2;durP2;ratioP2
16845;SDS011;8539;53.188;8.696;2024-03-02T00:00:17;21.80;;;14.35;;
16845;SDS011;8539;53.188;8.696;2024-03-02T00:02:47;24.88;;;16.30;;
16845;SDS011;8539;53.188;8.696;2024-03-02T00:05:20;23.67;;;15.60;;
16845;SDS011;8539;53.188;8.696;2024-03-02T00:07:55;24.38;;;15.32;;
16845;SDS011;8539;53.188;8.696;2024-03-02T00:10:33;23.67;;;15.27;;
16845;SDS011;8539;53.188;8.696;2024-03-02T00:13:07;27.67;;;16.70;;
16845;SDS011;8539;53.188;8.696;2024-03-02T00:20:56;22.65;;;15.50;;
16845;SDS011;8539;53.188;8.696;2024-03-02T00:23:24;24.95;;;15.55;;
16845;SDS011;8539;53.188;8.696;2024-03-02T00:25:55;24.27;;;14.57;;
16845;SDS011;8539;53.188;8.696;2024-03-02T00:28:29;23.92;;;15.52;;
16845;SDS011;8539;53.188;8.696;2024-03-02T00:31:08;20.70;;;14.73;;
16845;SDS011;8539;53.188;8.696;2024-03-02T00:36:16;23.30;;;15.65;;
16845;SDS011;8539;53.188;8.696;2024-03-02T00:38:52;23.95;;;15.43;;
16845;SDS011;8539;53.188;8.696;2024-03-02T00:46:29;22.73;;;15.05;;
16845;SDS011;8539;53.188;8.696;2024-03-02T00:49:00;23.48;;;15.43;;
16845;SDS011;8539;53.188;8.696;2024-03-02T00:51:30;28.75;;;14.90;;
16845;SDS011;8539;53.188;8.696;2024-03-02T00:53:59;24.27;;;13.70;;
16845;SDS011;8539;53.188;8.696;2024-03-02T00:56:28;22.58;;;15.00;;
16845;SDS011;8539;53.188;8.696;2024-03-02T00:58:55;21.90;;;15.52;;
16845;SDS011;8539;53.188;8.696;2024-03-02T01:01:24;25.23;;;15.13;;
16845;SDS011;8539;53.188;8.696;2024-03-02T01:03:51;24.80;;;14.82;;
16845;SDS011;8539;53.188;8.696;2024-03-02T01:06:19;27.52;;;17.05;;
16845;SDS011;8539;53.188;8.696;2024-03-02T01:08:47;25.55;;;16.27;;
16845;SDS011;8539;53.188;8.696;2024-03-02T01:11:19;22.67;;;14.43;;
16845;SDS011;8539;53.188;8.696;2024-03-02T01:13:51;28.30;;;14.57;;
16845;SDS011;8539;53.188;8.696;2024-03-02T01:16:19;21.48;;;14.65;;
16845;SDS011;8539;53.188;8.696;2024-03-02T01:18:47;23.88;;;15.07;;
16845;SDS011;8539;53.188;8.696;2024-03-02T01:21:15;24.02;;;15.45;;
16845;SDS011;8539;53.188;8.696;2024-03-02T01:23:43;25.00;;;15.35;;
16845;SDS011;8539;53.188;8.696;2024-03-02T01:26:10;25.38;;;15.10;;
16845;SDS011;8539;53.188;8.696;2024-03-02T01:28:38;21.20;;;13.98;;
16845;SDS011;8539;53.188;8.696;2024-03-02T01:31:05;21.42;;;14.00;;
16845;SDS011;8539;53.188;8.696;2024-03-02T01:33:32;23.73;;;13.00;;
16845;SDS011;8539;53.188;8.696;2024-03-02T01:36:00;22.70;;;14.80;;
16845;SDS011;8539;53.188;8.696;2024-03-02T01:38:27;24.80;;;15.32;;
16845;SDS011;8539;53.188;8.696;2024-03-02T01:40:56;21.67;;;14.38;;
16845;SDS011;8539;53.188;8.696;2024-03-02T01:43:25;22.77;;;14.82;;
16845;SDS011;8539;53.188;8.696;2024-03-02T01:45:52;23.30;;;13.85;;
16845;SDS011;8539;53.188;8.696;2024-03-02T01:48:20;20.08;;;13.77;;
16845;SDS011;8539;53.188;8.696;2024-03-02T01:50:47;20.60;;;13.30;;
16845;SDS011;8539;53.188;8.696;2024-03-02T01:53:15;24.30;;;14.25;;
16845;SDS011;8539;53.188;8.696;2024-03-02T01:55:42;20.50;;;14.43;;
16845;SDS011;8539;53.188;8.696;2024-03-02T01:58:10;22.23;;;14.65;;
16845;SDS011;8539;53.188;8.696;2024-03-02T02:00:38;20.83;;;14.23;;
16845;SDS011;8539;53.188;8.696;2024-03-02T02:03:05;23.92;;;14.63;;
16845;SDS011;8539;53.188;8.696;2024-03-02T02:05:33;21.85;;;15.02;;
16845;SDS011;8539;53.188;8.696;2024-03-02T02:08:02;26.38;;;15.50;;
16845;SDS011;8539;53.188;8.696;2024-03-02T02:10:29;30.30;;;15.70;;
16845;SDS011;8539;53.188;8.696;2024-03-02T02:12:56;21.02;;;15.57;;
16845;SDS011;8539;53.188;8.696;2024-03-02T02:15:28;20.67;;;14.82;;
16845;SDS011;8539;53.188;8.696;2024-03-02T02:17:57;24.52;;;16.25;;
16845;SDS011;8539;53.188;8.696;2024-03-02T02:20:25;25.30;;;15.20;;
16845;SDS011;8539;53.188;8.696;2024-03-02T02:22:59;23.33;;;15.07;;
16845;SDS011;8539;53.188;8.696;2024-03-02T02:25:28;26.30;;;14.80;;
16845;SDS011;8539;53.188;8.696;2024-03-02T02:27:57;21.88;;;14.95;;
16845;SDS011;8539;53.188;8.696;2024-03-02T02:32:54;24.50;;;16.50;;
16845;SDS011;8539;53.188;8.696;2024-03-02T02:35:22;23.92;;;16.13;;
16845;SDS011;8539;53.188;8.696;2024-03-02T02:37:51;23.17;;;15.55;;
16845;SDS011;8539;53.188;8.696;2024-03-02T02:40:20;26.13;;;15.45;;
16845;SDS011;8539;53.188;8.696;2024-03-02T02:42:48;23.95;;;15.52;;
16845;SDS011;8539;53.188;8.696;2024-03-02T02:45:15;21.35;;;13.90;;
16845;SDS011;8539;53.188;8.696;2024-03-02T02:47:43;25.73;;;14.88;;
16845;SDS011;8539;53.188;8.696;2024-03-02T02:50:11;22.17;;;14.57;;
16845;SDS011;8539;53.188;8.696;2024-03-02T02:52:40;22.80;;;15.00;;
16845;SDS011;8539;53.188;8.696;2024-03-02T02:55:09;22.23;;;14.57;;
16845;SDS011;8539;53.188;8.696;2024-03-02T02:57:41;25.75;;;15.52;;
16845;SDS011;8539;53.188;8.696;2024-03-02T03:00:11;24.88;;;15.65;;
16845;SDS011;8539;53.188;8.696;2024-03-02T03:02:45;23.48;;;14.60;;
16845;SDS011;8539;53.188;8.696;2024-03-02T03:05:15;27.38;;;16.85;;
16845;SDS011;8539;53.188;8.696;2024-03-02T03:07:42;27.10;;;17.15;;
16845;SDS011;8539;53.188;8.696;2024-03-02T03:10:11;23.02;;;16.20;;
16845;SDS011;8539;53.188;8.696;2024-03-02T03:12:41;24.73;;;15.90;;
16845;SDS011;8539;53.188;8.696;2024-03-02T03:15:10;26.17;;;16.83;;
16845;SDS011;8539;53.188;8.696;2024-03-02T03:17:39;29.45;;;18.77;;
16845;SDS011;8539;53.188;8.696;2024-03-02T03:20:07;28.02;;;17.35;;
16845;SDS011;8539;53.188;8.696;2024-03-02T03:22:39;28.45;;;18.35;;
16845;SDS011;8539;53.188;8.696;2024-03-02T03:25:07;27.70;;;18.10;;
16845;SDS011;8539;53.188;8.696;2024-03-02T03:27:35;25.42;;;18.10;;
16845;SDS011;8539;53.188;8.696;2024-03-02T03:30:03;28.58;;;18.17;;
16845;SDS011;8539;53.188;8.696;2024-03-02T03:32:33;27.02;;;17.35;;
16845;SDS011;8539;53.188;8.696;2024-03-02T03:35:00;29.55;;;18.10;;
16845;SDS011;8539;53.188;8.696;2024-03-02T03:37:28;27.00;;;18.50;;
16845;SDS011;8539;53.188;8.696;2024-03-02T03:40:03;29.08;;;18.40;;
16845;SDS011;8539;53.188;8.696;2024-03-02T03:42:37;29.45;;;19.05;;
16845;SDS011;8539;53.188;8.696;2024-03-02T03:45:06;29.67;;;18.20;;
16845;SDS011;8539;53.188;8.696;2024-03-02T03:47:34;33.67;;;20.13;;
16845;SDS011;8539;53.188;8.696;2024-03-02T03:50:02;28.63;;;16.77;;
16845;SDS011;8539;53.188;8.696;2024-03-02T03:52:32;24.80;;;17.20;;
16845;SDS011;8539;53.188;8.696;2024-03-02T03:55:00;28.17;;;17.92;;
16845;SDS011;8539;53.188;8.696;2024-03-02T03:57:27;25.50;;;16.48;;
16845;SDS011;8539;53.188;8.696;2024-03-02T03:59:55;26.27;;;18.33;;
16845;SDS011;8539;53.188;8.696;2024-03-02T04:02:22;27.23;;;17.38;;
16845;SDS011;8539;53.188;8.696;2024-03-02T04:04:51;32.30;;;19.52;;
16845;SDS011;8539;53.188;8.696;2024-03-02T04:07:18;31.50;;;18.40;;
16845;SDS011;8539;53.188;8.696;2024-03-02T04:09:46;28.05;;;17.55;;
16845;SDS011;8539;53.188;8.696;2024-03-02T04:12:13;27.42;;;18.15;;
16845;SDS011;8539;53.188;8.696;2024-03-02T04:14:41;30.02;;;18.30;;
16845;SDS011;8539;53.188;8.696;2024-03-02T04:17:09;30.15;;;19.08;;
16845;SDS011;8539;53.188;8.696;2024-03-02T04:19:37;29.52;;;17.58;;
16845;SDS011;8539;53.188;8.696;2024-03-02T04:22:04;26.13;;;17.40;;
16845;SDS011;8539;53.188;8.696;2024-03-02T04:24:43;26.02;;;17.48;;
16845;SDS011;8539;53.188;8.696;2024-03-02T04:27:11;28.10;;;17.73;;
16845;SDS011;8539;53.188;8.696;2024-03-02T04:29:38;25.30;;;16.70;;
16845;SDS011;8539;53.188;8.696;2024-03-02T04:32:10;27.88;;;17.95;;
16845;SDS011;8539;53.188;8.696;2024-03-02T04:34:37;29.08;;;16.88;;
16845;SDS011;8539;53.188;8.696;2024-03-02T04:37:05;25.70;;;16.20;;
16845;SDS011;8539;53.188;8.696;2024-03-02T04:39:34;25.58;;;17.10;;
16845;SDS011;8539;53.188;8.696;2024-03-02T04:42:02;25.42;;;17.73;;
16845;SDS011;8539;53.188;8.696;2024-03-02T04:44:29;25.33;;;16.63;;
16845;SDS011;8539;53.188;8.696;2024-03-02T04:46:57;25.35;;;17.80;;
16845;SDS011;8539;53.188;8.696;2024-03-02T04:49:24;22.75;;;15.18;;
16845;SDS011;8539;53.188;8.696;2024-03-02T04:51:52;26.00;;;15.05;;
16845;SDS011;8539;53.188;8.696;2024-03-02T04:54:19;25.80;;;16.40;;
16845;SDS011;8539;53.188;8.696;2024-03-02T04:56:47;27.20;;;16.77;;
16845;SDS011;8539;53.188;8.696;2024-03-02T04:59:17;23.90;;;15.38;;
16845;SDS011;8539;53.188;8.696;2024-03-02T05:01:45;23.77;;;15.75;;
16845;SDS011;8539;53.188;8.696;2024-03-02T05:04:14;22.80;;;15.88;;
16845;SDS011;8539;53.188;8.696;2024-03-02T05:06:41;23.77;;;15.45;;
16845;SDS011;8539;53.188;8.696;2024-03-02T05:09:09;26.33;;;16.90;;
16845;SDS011;8539;53.188;8.696;2024-03-02T05:11:36;25.35;;;16.63;;
16845;SDS011;8539;53.188;8.696;2024-03-02T05:14:04;23.30;;;15.30;;
16845;SDS011;8539;53.188;8.696;2024-03-02T05:16:35;27.52;;;17.10;;
16845;SDS011;8539;53.188;8.696;2024-03-02T05:19:06;24.80;;;14.95;;
16845;SDS011;8539;53.188;8.696;2024-03-02T05:21:34;21.05;;;15.15;;
16845;SDS011;8539;53.188;8.696;2024-03-02T05:24:01;21.08;;;14.60;;
16845;SDS011;8539;53.188;8.696;2024-03-02T05:26:29;20.55;;;14.85;;
16845;SDS011;8539;53.188;8.696;2024-03-02T05:28:56;19.77;;;14.35;;
16845;SDS011;8539;53.188;8.696;2024-03-02T05:31:23;21.25;;;14.95;;
16845;SDS011;8539;53.188;8.696;2024-03-02T05:33:51;22.75;;;14.93;;
16845;SDS011;8539;53.188;8.696;2024-03-02T05:36:23;22.85;;;15.20;;
16845;SDS011;8539;53.188;8.696;2024-03-02T05:38:51;23.35;;;15.32;;
16845;SDS011;8539;53.188;8.696;2024-03-02T05:41:18;24.67;;;14.85;;
16845;SDS011;8539;53.188;8.696;2024-03-02T05:43:46;21.88;;;14.75;;
16845;SDS011;8539;53.188;8.696;2024-03-02T05:46:13;24.13;;;14.73;;
16845;SDS011;8539;53.188;8.696;2024-03-02T05:48:40;22.83;;;13.88;;
16845;SDS011;8539;53.188;8.696;2024-03-02T05:51:08;21.33;;;13.93;;
16845;SDS011;8539;53.188;8.696;2024-03-02T05:53:35;20.55;;;14.68;;
16845;SDS011;8539;53.188;8.696;2024-03-02T05:56:05;22.23;;;14.43;;
16845;SDS011;8539;53.188;8.696;2024-03-02T05:58:32;18.63;;;13.52;;
16845;SDS011;8539;53.188;8.696;2024-03-02T06:01:19;25.15;;;13.45;;
16845;SDS011;8539;53.188;8.696;2024-03-02T06:03:46;23.08;;;13.05;;
16845;SDS011;8539;53.188;8.696;2024-03-02T06:06:13;19.20;;;13.88;;
16845;SDS011;8539;53.188;8.696;2024-03-02T06:08:41;22.35;;;14.70;;
16845;SDS011;8539;53.188;8.696;2024-03-02T06:11:08;18.67;;;13.35;;
16845;SDS011;8539;53.188;8.696;2024-03-02T06:13:35;20.42;;;13.68;;
16845;SDS011;8539;53.188;8.696;2024-03-02T06:16:03;17.73;;;12.90;;
16845;SDS011;8539;53.188;8.696;2024-03-02T06:18:30;22.58;;;14.48;;
16845;SDS011;8539;53.188;8.696;2024-03-02T06:20:57;20.48;;;14.40;;
16845;SDS011;8539;53.188;8.696;2024-03-02T06:23:25;21.63;;;14.00;;
16845;SDS011;8539;53.188;8.696;2024-03-02T06:25:52;21.42;;;13.80;;
16845;SDS011;8539;53.188;8.696;2024-03-02T06:28:20;22.65;;;13.90;;
16845;SDS011;8539;53.188;8.696;2024-03-02T06:30:47;20.05;;;13.85;;
16845;SDS011;8539;53.188;8.696;2024-03-02T06:33:14;20.08;;;13.45;;
16845;SDS011;8539;53.188;8.696;2024-03-02T06:35:42;21.30;;;14.38;;
16845;SDS011;8539;53.188;8.696;2024-03-02T06:38:09;25.50;;;14.13;;
16845;SDS011;8539;53.188;8.696;2024-03-02T06:40:36;22.15;;;14.65;;
16845;SDS011;8539;53.188;8.696;2024-03-02T06:43:07;19.65;;;14.05;;
16845;SDS011;8539;53.188;8.696;2024-03-02T06:45:34;20.73;;;14.40;;
16845;SDS011;8539;53.188;8.696;2024-03-02T06:48:02;21.38;;;13.15;;
16845;SDS011;8539;53.188;8.696;2024-03-02T06:50:29;19.77;;;14.48;;
16845;SDS011;8539;53.188;8.696;2024-03-02T06:52:56;21.70;;;13.27;;
16845;SDS011;8539;53.188;8.696;2024-03-02T06:55:24;20.10;;;14.43;;
16845;SDS011;8539;53.188;8.696;2024-03-02T06:57:52;20.73;;;14.18;;
16845;SDS011;8539;53.188;8.696;2024-03-02T07:00:19;28.05;;;14.07;;
16845;SDS011;8539;53.188;8.696;2024-03-02T07:02:47;26.48;;;14.73;;
16845;SDS011;8539;53.188;8.696;2024-03-02T07:05:15;21.02;;;14.60;;
16845;SDS011;8539;53.188;8.696;2024-03-02T07:07:42;24.00;;;14.15;;
16845;SDS011;8539;53.188;8.696;2024-03-02T07:10:10;35.72;;;15.20;;
16845;SDS011;8539;53.188;8.696;2024-03-02T07:12:37;22.02;;;15.30;;
16845;SDS011;8539;53.188;8.696;2024-03-02T07:15:04;24.40;;;13.30;;
16845;SDS011;8539;53.188;8.696;2024-03-02T07:17:32;20.05;;;13.57;;
16845;SDS011;8539;53.188;8.696;2024-03-02T07:20:00;21.98;;;14.27;;
16845;SDS011;8539;53.188;8.696;2024-03-02T07:22:27;21.77;;;14.55;;
16845;SDS011;8539;53.188;8.696;2024-03-02T07:24:54;22.48;;;13.40;;
16845;SDS011;8539;53.188;8.696;2024-03-02T07:27:22;22.65;;;13.75;;
16845;SDS011;8539;53.188;8.696;2024-03-02T07:29:49;21.60;;;13.68;;
16845;SDS011;8539;53.188;8.696;2024-03-02T07:32:17;26.00;;;15.35;;
16845;SDS011;8539;53.188;8.696;2024-03-02T07:34:44;23.23;;;13.40;;
16845;SDS011;8539;53.188;8.696;2024-03-02T07:37:11;19.73;;;13.70;;
16845;SDS011;8539;53.188;8.696;2024-03-02T07:39:38;22.33;;;12.65;;
16845;SDS011;8539;53.188;8.696;2024-03-02T07:42:06;22.35;;;15.27;;
16845;SDS011;8539;53.188;8.696;2024-03-02T07:44:33;17.98;;;12.88;;
16845;SDS011;8539;53.188;8.696;2024-03-02T07:47:01;24.65;;;15.10;;
16845;SDS011;8539;53.188;8.696;2024-03-02T07:49:28;25.65;;;15.45;;
16845;SDS011;8539;53.188;8.696;2024-03-02T07:51:55;23.27;;;15.07;;
16845;SDS011;8539;53.188;8.696;2024-03-02T07:54:22;21.67;;;14.32;;
16845;SDS011;8539;53.188;8.696;2024-03-02T07:56:49;23.60;;;14.45;;
16845;SDS011;8539;53.188;8.696;2024-03-02T07:59:16;23.52;;;14.48;;
16845;SDS011;8539;53.188;8.696;2024-03-02T08:01:44;19.85;;;14.32;;
16845;SDS011;8539;53.188;8.696;2024-03-02T08:04:11;24.52;;;15.52;;
16845;SDS011;8539;53.188;8.696;2024-03-02T08:06:38;18.13;;;13.63;;
16845;SDS011;8539;53.188;8.696;2024-03-02T08:09:05;24.15;;;14.45;;
16845;SDS011;8539;53.188;8.696;2024-03-02T08:11:36;22.65;;;15.68;;
16845;SDS011;8539;53.188;8.696;2024-03-02T08:14:06;21.67;;;13.50;;
16845;SDS011;8539;53.188;8.696;2024-03-02T08:16:33;19.20;;;13.20;;
16845;SDS011;8539;53.188;8.696;2024-03-02T08:19:00;20.98;;;14.05;;
16845;SDS011;8539;53.188;8.696;2024-03-02T08:21:28;26.15;;;14.20;;
16845;SDS011;8539;53.188;8.696;2024-03-02T08:23:57;24.83;;;15.82;;
16845;SDS011;8539;53.188;8.696;2024-03-02T08:26:24;20.77;;;15.43;;
16845;SDS011;8539;53.188;8.696;2024-03-02T08:28:52;19.02;;;13.45;;
16845;SDS011;8539;53.188;8.696;2024-03-02T08:31:19;22.85;;;15.32;;
16845;SDS011;8539;53.188;8.696;2024-03-02T08:33:46;21.35;;;14.23;;
16845;SDS011;8539;53.188;8.696;2024-03-02T08:36:13;18.42;;;14.27;;
16845;SDS011;8539;53.188;8.696;2024-03-02T08:38:41;20.35;;;14.52;;
16845;SDS011;8539;53.188;8.696;2024-03-02T08:41:08;23.80;;;14.75;;
16845;SDS011;8539;53.188;8.696;2024-03-02T08:43:35;29.48;;;14.93;;
16845;SDS011;8539;53.188;8.696;2024-03-02T08:46:02;20.48;;;14.65;;
16845;SDS011;8539;53.188;8.696;2024-03-02T08:48:29;18.95;;;12.60;;
16845;SDS011;8539;53.188;8.696;2024-03-02T08:50:57;18.60;;;13.65;;
16845;SDS011;8539;53.188;8.696;2024-03-02T08:53:24;21.63;;;14.07;;
16845;SDS011;8539;53.188;8.696;2024-03-02T08:55:51;16.42;;;12.60;;
16845;SDS011;8539;53.188;8.696;2024-03-02T08:58:18;19.65;;;13.85;;
16845;SDS011;8539;53.188;8.696;2024-03-02T09:00:47;21.20;;;13.50;;
16845;SDS011;8539;53.188;8.696;2024-03-02T09:03:14;15.77;;;11.32;;
16845;SDS011;8539;53.188;8.696;2024-03-02T09:05:42;16.55;;;12.73;;
16845;SDS011;8539;53.188;8.696;2024-03-02T09:08:09;16.40;;;11.90;;
16845;SDS011;8539;53.188;8.696;2024-03-02T09:10:36;18.33;;;12.70;;
16845;SDS011;8539;53.188;8.696;2024-03-02T09:13:06;15.38;;;11.35;;
16845;SDS011;8539;53.188;8.696;2024-03-02T09:15:33;16.48;;;12.05;;
16845;SDS011;8539;53.188;8.696;2024-03-02T09:18:04;16.73;;;12.50;;
16845;SDS011;8539;53.188;8.696;2024-03-02T09:20:31;15.48;;;11.65;;
16845;SDS011;8539;53.188;8.696;2024-03-02T09:22:58;16.92;;;12.23;;
16845;SDS011;8539;53.188;8.696;2024-03-02T09:25:25;15.65;;;12.07;;
16845;SDS011;8539;53.188;8.696;2024-03-02T09:27:52;16.23;;;11.98;;
16845;SDS011;8539;53.188;8.696;2024-03-02T09:30:20;16.98;;;12.18;;
16845;SDS011;8539;53.188;8.696;2024-03-02T09:32:47;15.77;;;11.50;;
16845;SDS011;8539;53.188;8.696;2024-03-02T09:35:16;18.05;;;10.55;;
16845;SDS011;8539;53.188;8.696;2024-03-02T09:37:43;13.52;;;9.77;;
16845;SDS011;8539;53.188;8.696;2024-03-02T09:40:10;15.63;;;10.50;;
16845;SDS011;8539;53.188;8.696;2024-03-02T09:42:38;16.77;;;11.15;;
16845;SDS011;8539;53.188;8.696;2024-03-02T09:45:06;17.70;;;11.77;;
16845;SDS011;8539;53.188;8.696;2024-03-02T09:47:34;15.30;;;10.15;;
16845;SDS011;8539;53.188;8.696;2024-03-02T09:50:01;16.17;;;11.02;;
16845;SDS011;8539;53.188;8.696;2024-03-02T09:52:28;15.63;;;10.07;;
16845;SDS011;8539;53.188;8.696;2024-03-02T09:54:59;14.75;;;11.15;;
16845;SDS011;8539;53.188;8.696;2024-03-02T09:57:27;14.00;;;9.95;;
16845;SDS011;8539;53.188;8.696;2024-03-02T09:59:54;18.02;;;9.70;;
16845;SDS011;8539;53.188;8.696;2024-03-02T10:02:21;17.08;;;10.93;;
16845;SDS011;8539;53.188;8.696;2024-03-02T10:04:49;16.90;;;10.32;;
16845;SDS011;8539;53.188;8.696;2024-03-02T10:07:16;13.65;;;10.20;;
16845;SDS011;8539;53.188;8.696;2024-03-02T10:09:45;13.27;;;9.57;;
16845;SDS011;8539;53.188;8.696;2024-03-02T10:12:15;12.23;;;9.27;;
16845;SDS011;8539;53.188;8.696;2024-03-02T10:14:43;16.88;;;11.45;;
16845;SDS011;8539;53.188;8.696;2024-03-02T10:17:12;13.98;;;9.77;;
16845;SDS011;8539;53.188;8.696;2024-03-02T10:19:40;13.73;;;9.85;;
16845;SDS011;8539;53.188;8.696;2024-03-02T10:22:08;13.95;;;10.38;;
16845;SDS011;8539;53.188;8.696;2024-03-02T10:27:08;12.00;;;9.25;;
16845;SDS011;8539;53.188;8.696;2024-03-02T10:29:38;12.98;;;9.02;;
16845;SDS011;8539;53.188;8.696;2024-03-02T10:32:10;12.05;;;10.07;;
16845;SDS011;8539;53.188;8.696;2024-03-02T10:34:41;13.90;;;9.20;;
16845;SDS011;8539;53.188;8.696;2024-03-02T10:37:11;12.95;;;9.35;;
16845;SDS011;8539;53.188;8.696;2024-03-02T10:39:39;14.23;;;9.02;;
16845;SDS011;8539;53.188;8.696;2024-03-02T10:42:07;12.95;;;9.07;;
16845;SDS011;8539;53.188;8.696;2024-03-02T10:44:35;12.10;;;8.02;;
16845;SDS011;8539;53.188;8.696;2024-03-02T10:47:04;12.48;;;7.97;;
16845;SDS011;8539;53.188;8.696;2024-03-02T10:49:31;9.43;;;7.40;;
16845;SDS011;8539;53.188;8.696;2024-03-02T10:52:00;11.55;;;8.75;;
16845;SDS011;8539;53.188;8.696;2024-03-02T10:54:28;12.05;;;8.05;;
16845;SDS011;8539;53.188;8.696;2024-03-02T10:57:04;9.80;;;7.50;;
16845;SDS011;8539;53.188;8.696;2024-03-02T10:59:34;9.57;;;8.07;;
16845;SDS011;8539;53.188;8.696;2024-03-02T11:02:13;8.98;;;7.22;;
16845;SDS011;8539;53.188;8.696;2024-03-02T11:04:41;14.80;;;7.88;;
16845;SDS011;8539;53.188;8.696;2024-03-02T11:07:10;11.43;;;8.50;;
16845;SDS011;8539;53.188;8.696;2024-03-02T11:09:41;12.02;;;7.45;;
16845;SDS011;8539;53.188;8.696;2024-03-02T11:15:04;9.27;;;7.60;;
16845;SDS011;8539;53.188;8.696;2024-03-02T11:17:36;11.80;;;8.20;;
16845;SDS011;8539;53.188;8.696;2024-03-02T11:20:05;12.57;;;8.50;;
16845;SDS011;8539;53.188;8.696;2024-03-02T11:22:35;9.57;;;6.55;;
16845;SDS011;8539;53.188;8.696;2024-03-02T11:25:03;9.68;;;6.68;;
16845;SDS011;8539;53.188;8.696;2024-03-02T11:28:13;10.00;;;6.38;;
16845;SDS011;8539;53.188;8.696;2024-03-02T11:33:02;10.30;;;6.47;;
16845;SDS011;8539;53.188;8.696;2024-03-02T11:35:42;8.82;;;5.97;;
16845;SDS011;8539;53.188;8.696;2024-03-02T11:38:14;6.82;;;5.72;;
16845;SDS011;8539;53.188;8.696;2024-03-02T11:40:41;9.23;;;6.63;;
16845;SDS011;8539;53.188;8.696;2024-03-02T11:43:08;9.02;;;6.82;;
16845;SDS011;8539;53.188;8.696;2024-03-02T11:45:36;11.57;;;8.02;;
16845;SDS011;8539;53.188;8.696;2024-03-02T11:48:11;9.63;;;6.97;;
16845;SDS011;8539;53.188;8.696;2024-03-02T11:50:41;10.43;;;6.78;;
16845;SDS011;8539;53.188;8.696;2024-03-02T11:53:18;11.15;;;6.45;;
16845;SDS011;8539;53.188;8.696;2024-03-02T11:55:46;9.82;;;6.95;;
16845;SDS011;8539;53.188;8.696;2024-03-02T11:58:16;9.50;;;6.72;;
16845;SDS011;8539;53.188;8.696;2024-03-02T12:00:51;7.68;;;6.20;;
16845;SDS011;8539;53.188;8.696;2024-03-02T12:03:20;6.75;;;6.00;;
16845;SDS011;8539;53.188;8.696;2024-03-02T12:05:49;9.18;;;6.97;;
16845;SDS011;8539;53.188;8.696;2024-03-02T12:08:17;12.07;;;7.88;;
16845;SDS011;8539;53.188;8.696;2024-03-02T12:11:01;9.40;;;6.60;;
16845;SDS011;8539;53.188;8.696;2024-03-02T12:13:30;11.68;;;6.90;;
16845;SDS011;8539;53.188;8.696;2024-03-02T12:15:58;11.60;;;6.68;;
16845;SDS011;8539;53.188;8.696;2024-03-02T12:18:26;7.60;;;5.80;;
16845;SDS011;8539;53.188;8.696;2024-03-02T12:20:53;10.35;;;6.15;;
16845;SDS011;8539;53.188;8.696;2024-03-02T12:23:24;10.90;;;6.45;;
16845;SDS011;8539;53.188;8.696;2024-03-02T12:25:52;7.63;;;6.18;;
16845;SDS011;8539;53.188;8.696;2024-03-02T12:28:19;8.05;;;6.20;;
16845;SDS011;8539;53.188;8.696;2024-03-02T12:30:47;8.40;;;5.75;;
16845;SDS011;8539;53.188;8.696;2024-03-02T12:33:16;8.75;;;6.65;;
16845;SDS011;8539;53.188;8.696;2024-03-02T12:35:43;7.38;;;5.75;;
16845;SDS011;8539;53.188;8.696;2024-03-02T12:38:10;8.20;;;6.00;;
16845;SDS011;8539;53.188;8.696;2024-03-02T12:40:38;8.52;;;6.50;;
16845;SDS011;8539;53.188;8.696;2024-03-02T12:43:05;7.03;;;5.30;;
16845;SDS011;8539;53.188;8.696;2024-03-02T12:45:34;9.43;;;6.38;;
16845;SDS011;8539;53.188;8.696;2024-03-02T12:48:02;9.43;;;7.10;;
16845;SDS011;8539;53.188;8.696;2024-03-02T12:50:30;8.77;;;5.80;;
16845;SDS011;8539;53.188;8.696;2024-03-02T12:52:58;9.55;;;6.72;;
16845;SDS011;8539;53.188;8.696;2024-03-02T12:55:25;10.52;;;7.38;;
16845;SDS011;8539;53.188;8.696;2024-03-02T12:57:53;8.85;;;6.65;;
16845;SDS011;8539;53.188;8.696;2024-03-02T13:00:21;9.32;;;7.53;;
16845;SDS011;8539;53.188;8.696;2024-03-02T13:02:49;10.07;;;6.88;;
16845;SDS011;8539;53.188;8.696;2024-03-02T13:05:18;10.90;;;7.47;;
16845;SDS011;8539;53.188;8.696;2024-03-02T13:07:47;7.65;;;6.15;;
16845;SDS011;8539;53.188;8.696;2024-03-02T13:10:15;10.77;;;6.60;;
16845;SDS011;8539;53.188;8.696;2024-03-02T13:12:43;8.60;;;6.53;;
16845;SDS011;8539;53.188;8.696;2024-03-02T13:15:10;7.40;;;6.28;;
16845;SDS011;8539;53.188;8.696;2024-03-02T13:17:44;14.27;;;6.47;;
16845;SDS011;8539;53.188;8.696;2024-03-02T13:20:13;10.88;;;7.03;;
16845;SDS011;8539;53.188;8.696;2024-03-02T13:22:41;8.48;;;5.90;;
16845;SDS011;8539;53.188;8.696;2024-03-02T13:25:08;7.78;;;6.13;;
16845;SDS011;8539;53.188;8.696;2024-03-02T13:27:38;9.15;;;6.22;;
16845;SDS011;8539;53.188;8.696;2024-03-02T13:30:05;11.27;;;6.30;;
16845;SDS011;8539;53.188;8.696;2024-03-02T13:32:35;8.55;;;5.97;;
16845;SDS011;8539;53.188;8.696;2024-03-02T13:35:02;8.98;;;6.18;;
16845;SDS011;8539;53.188;8.696;2024-03-02T13:37:30;9.68;;;6.05;;
16845;SDS011;8539;53.188;8.696;2024-03-02T13:39:57;9.38;;;5.45;;
16845;SDS011;8539;53.188;8.696;2024-03-02T13:42:24;9.13;;;5.97;;
16845;SDS011;8539;53.188;8.696;2024-03-02T13:44:51;8.82;;;6.32;;
16845;SDS011;8539;53.188;8.696;2024-03-02T13:47:19;8.23;;;5.90;;
16845;SDS011;8539;53.188;8.696;2024-03-02T13:49:47;8.38;;;5.43;;
16845;SDS011;8539;53.188;8.696;2024-03-02T13:52:16;6.05;;;5.38;;
16845;SDS011;8539;53.188;8.696;2024-03-02T13:54:44;10.50;;;6.60;;
16845;SDS011;8539;53.188;8.696;2024-03-02T13:57:12;8.77;;;6.32;;
16845;SDS011;8539;53.188;8.696;2024-03-02T13:59:40;8.07;;;5.90;;
16845;SDS011;8539;53.188;8.696;2024-03-02T14:02:09;8.82;;;6.80;;
16845;SDS011;8539;53.188;8.696;2024-03-02T14:04:36;9.93;;;6.47;;
16845;SDS011;8539;53.188;8.696;2024-03-02T14:07:04;10.05;;;6.07;;
16845;SDS011;8539;53.188;8.696;2024-03-02T14:09:34;8.13;;;6.55;;
16845;SDS011;8539;53.188;8.696;2024-03-02T14:12:02;10.07;;;6.60;;
16845;SDS011;8539;53.188;8.696;2024-03-02T14:14:30;9.60;;;6.30;;
16845;SDS011;8539;53.188;8.696;2024-03-02T14:16:58;8.90;;;7.05;;
16845;SDS011;8539;53.188;8.696;2024-03-02T14:19:33;8.10;;;6.15;;
16845;SDS011;8539;53.188;8.696;2024-03-02T14:22:00;8.85;;;6.85;;
16845;SDS011;8539;53.188;8.696;2024-03-02T14:24:27;9.73;;;6.22;;
16845;SDS011;8539;53.188;8.696;2024-03-02T14:26:56;7.97;;;5.70;;
16845;SDS011;8539;53.188;8.696;2024-03-02T14:29:45;6.80;;;5.65;;
16845;SDS011;8539;53.188;8.696;2024-03-02T14:32:12;7.25;;;5.07;;
16845;SDS011;8539;53.188;8.696;2024-03-02T14:34:40;7.32;;;5.55;;
16845;SDS011;8539;53.188;8.696;2024-03-02T14:37:07;9.27;;;5.38;;
16845;SDS011;8539;53.188;8.696;2024-03-02T14:39:34;7.40;;;5.40;;
16845;SDS011;8539;53.188;8.696;2024-03-02T14:42:02;8.23;;;4.80;;
16845;SDS011;8539;53.188;8.696;2024-03-02T14:44:30;5.20;;;3.92;;
16845;SDS011;8539;53.188;8.696;2024-03-02T14:46:57;5.90;;;3.70;;
16845;SDS011;8539;53.188;8.696;2024-03-02T14:49:25;5.55;;;3.95;;
16845;SDS011;8539;53.188;8.696;2024-03-02T14:51:55;6.55;;;4.57;;
16845;SDS011;8539;53.188;8.696;2024-03-02T14:54:22;6.35;;;4.38;;
16845;SDS011;8539;53.188;8.696;2024-03-02T14:56:50;6.90;;;4.78;;
16845;SDS011;8539;53.188;8.696;2024-03-02T14:59:18;9.05;;;4.68;;
16845;SDS011;8539;53.188;8.696;2024-03-02T15:01:45;9.65;;;5.28;;
16845;SDS011;8539;53.188;8.696;2024-03-02T15:04:13;6.47;;;4.82;;
16845;SDS011;8539;53.188;8.696;2024-03-02T15:06:45;9.38;;;4.80;;
16845;SDS011;8539;53.188;8.696;2024-03-02T15:09:12;9.00;;;4.95;;
16845;SDS011;8539;53.188;8.696;2024-03-02T15:11:39;7.43;;;4.80;;